sensor_id;sensor_type;location;lat;lon;timestamp;temperature;humidity
13496;DHT22;6820;49.374;8.452;2024-02-14T00:03:47;6.91;99.99
13496;DHT22;6820;49.374;8.452;2024-02-14T00:07:49;6.93;99.99
13496;DHT22;6820;49.374;8.452;2024-02-14T00:11:51;6.96;99.99
13496;DHT22;6820;49.374;8.452;2024-02-14T00:15:53;6.99;99.99
13496;DHT22;6820;49.374;8.452;2024-02-14T00:19:54;7.01;99.99
13496;DHT22;6820;49.374;8.452;2024-02-14T00:23:57;7.01;99.99
13496;DHT22;6820;49.374;8.452;2024-02-14T00:28:00;7.04;99.99
13496;DHT22;6820;49.374;8.452;2024-02-14T00:32:02;7.05;99.99
13496;DHT22;6820;49.374;8.452;2024-02-14T00:36:04;7.07;99.99
13496;DHT22;6820;49.374;8.452;2024-02-14T00:40:06;7.07;99.99
13496;DHT22;6820;49.374;8.452;2024-02-14T00:44:08;7.05;99.99
13496;DHT22;6820;49.374;8.452;2024-02-14T00:48:10;7.05;99.99
13496;DHT22;6820;49.374;8.452;2024-02-14T00:52:12;7.05;99.99
13496;DHT22;6820;49.374;8.452;2024-02-14T00:56:13;7.05;99.99
13496;DHT22;6820;49.374;8.452;2024-02-14T01:00:15;7.08;99.99
13496;DHT22;6820;49.374;8.452;2024-02-14T01:04:18;7.07;99.99
13496;DHT22;6820;49.374;8.452;2024-02-14T01:08:20;7.04;99.99
13496;DHT22;6820;49.374;8.452;2024-02-14T01:12:22;7.00;99.99
13496;DHT22;6820;49.374;8.452;2024-02-14T01:16:24;6.99;99.99
13496;DHT22;6820;49.374;8.452;2024-02-14T01:20:27;6.97;99.99
13496;DHT22;6820;49.374;8.452;2024-02-14T01:24:29;6.99;99.99
13496;DHT22;6820;49.374;8.452;2024-02-14T01:28:31;6.99;99.99
13496;DHT22;6820;49.374;8.452;2024-02-14T01:32:33;7.00;99.99
13496;DHT22;6820;49.374;8.452;2024-02-14T01:36:35;7.00;99.99
13496;DHT22;6820;49.374;8.452;2024-02-14T01:40:37;7.01;99.99
13496;DHT22;6820;49.374;8.452;2024-02-14T01:44:38;7.05;99.99
13496;DHT22;6820;49.374;8.452;2024-02-14T01:48:40;7.05;99.99
13496;DHT22;6820;49.374;8.452;2024-02-14T01:52:43;7.08;99.99
13496;DHT22;6820;49.374;8.452;2024-02-14T01:56:45;7.08;99.99
13496;DHT22;6820;49.374;8.452;2024-02-14T02:00:47;7.08;99.99
13496;DHT22;6820;49.374;8.452;2024-02-14T02:04:50;7.09;99.99
13496;DHT22;6820;49.374;8.452;2024-02-14T02:08:53;7.09;99.99
13496;DHT22;6820;49.374;8.452;2024-02-14T02:13:00;7.11;99.99
13496;DHT22;6820;49.374;8.452;2024-02-14T02:17:02;7.09;99.99
13496;DHT22;6820;49.374;8.452;2024-02-14T02:21:09;7.08;99.99
13496;DHT22;6820;49.374;8.452;2024-02-14T02:25:10;7.07;99.99
13496;DHT22;6820;49.374;8.452;2024-02-14T02:29:12;7.05;99.99
13496;DHT22;6820;49.374;8.452;2024-02-14T02:33:13;7.01;99.99
13496;DHT22;6820;49.374;8.452;2024-02-14T02:37:15;7.01;99.99
13496;DHT22;6820;49.374;8.452;2024-02-14T02:41:18;7.01;99.99
13496;DHT22;6820;49.374;8.452;2024-02-14T02:45:19;7.01;99.99
13496;DHT22;6820;49.374;8.452;2024-02-14T02:49:21;7.01;99.99
13496;DHT22;6820;49.374;8.452;2024-02-14T02:53:23;7.08;99.99
13496;DHT22;6820;49.374;8.452;2024-02-14T02:57:25;7.11;99.99
13496;DHT22;6820;49.374;8.452;2024-02-14T03:01:27;7.15;99.99
13496;DHT22;6820;49.374;8.452;2024-02-14T03:05:32;7.15;99.99
13496;DHT22;6820;49.374;8.452;2024-02-14T03:09:35;7.19;99.99
13496;DHT22;6820;49.374;8.452;2024-02-14T03:13:37;7.19;99.99
13496;DHT22;6820;49.374;8.452;2024-02-14T03:17:42;7.21;99.99
13496;DHT22;6820;49.374;8.452;2024-02-14T03:21:44;7.21;99.99
13496;DHT22;6820;49.374;8.452;2024-02-14T03:25:48;7.23;99.99
13496;DHT22;6820;49.374;8.452;2024-02-14T03:29:49;7.24;99.99
13496;DHT22;6820;49.374;8.452;2024-02-14T03:33:52;7.26;99.99
13496;DHT22;6820;49.374;8.452;2024-02-14T03:37:55;7.29;99.99
13496;DHT22;6820;49.374;8.452;2024-02-14T03:41:57;7.30;99.99
13496;DHT22;6820;49.374;8.452;2024-02-14T03:46:02;7.30;99.99
13496;DHT22;6820;49.374;8.452;2024-02-14T03:50:04;7.30;99.99
13496;DHT22;6820;49.374;8.452;2024-02-14T03:54:06;7.29;99.99
13496;DHT22;6820;49.374;8.452;2024-02-14T03:58:08;7.27;99.99
13496;DHT22;6820;49.374;8.452;2024-02-14T04:02:10;7.27;99.99
13496;DHT22;6820;49.374;8.452;2024-02-14T04:06:12;7.29;99.99
13496;DHT22;6820;49.374;8.452;2024-02-14T04:10:14;7.29;99.99
13496;DHT22;6820;49.374;8.452;2024-02-14T04:14:16;7.26;99.99
13496;DHT22;6820;49.374;8.452;2024-02-14T04:18:18;7.23;99.99
13496;DHT22;6820;49.374;8.452;2024-02-14T04:22:20;7.21;99.99
13496;DHT22;6820;49.374;8.452;2024-02-14T04:26:22;7.21;99.99
13496;DHT22;6820;49.374;8.452;2024-02-14T04:30:24;7.23;99.99
13496;DHT22;6820;49.374;8.452;2024-02-14T04:34:26;7.27;99.99
13496;DHT22;6820;49.374;8.452;2024-02-14T04:38:28;7.30;99.99
13496;DHT22;6820;49.374;8.452;2024-02-14T04:42:31;7.33;99.99
13496;DHT22;6820;49.374;8.452;2024-02-14T04:46:32;7.37;99.99
13496;DHT22;6820;49.374;8.452;2024-02-14T04:50:36;7.45;99.99
13496;DHT22;6820;49.374;8.452;2024-02-14T04:54:38;7.48;99.99
13496;DHT22;6820;49.374;8.452;2024-02-14T04:58:40;7.54;99.99
13496;DHT22;6820;49.374;8.452;2024-02-14T05:02:42;7.57;99.99
13496;DHT22;6820;49.374;8.452;2024-02-14T05:06:43;7.58;99.99
13496;DHT22;6820;49.374;8.452;2024-02-14T05:10:45;7.60;99.99
13496;DHT22;6820;49.374;8.452;2024-02-14T05:14:47;7.62;99.99
13496;DHT22;6820;49.374;8.452;2024-02-14T05:18:50;7.63;99.99
13496;DHT22;6820;49.374;8.452;2024-02-14T05:22:52;7.69;99.99
13496;DHT22;6820;49.374;8.452;2024-02-14T05:26:53;7.73;99.99
13496;DHT22;6820;49.374;8.452;2024-02-14T05:30:56;7.77;99.99
13496;DHT22;6820;49.374;8.452;2024-02-14T05:34:58;7.81;99.99
13496;DHT22;6820;49.374;8.452;2024-02-14T05:39:00;7.85;99.99
13496;DHT22;6820;49.374;8.452;2024-02-14T05:43:02;7.88;99.99
13496;DHT22;6820;49.374;8.452;2024-02-14T05:47:03;7.91;99.99
13496;DHT22;6820;49.374;8.452;2024-02-14T05:51:05;7.91;99.99
13496;DHT22;6820;49.374;8.452;2024-02-14T05:55:07;7.92;99.99
13496;DHT22;6820;49.374;8.452;2024-02-14T05:59:10;7.94;99.99
13496;DHT22;6820;49.374;8.452;2024-02-14T06:03:12;7.94;99.99
13496;DHT22;6820;49.374;8.452;2024-02-14T06:07:13;7.95;99.99
13496;DHT22;6820;49.374;8.452;2024-02-14T06:11:15;7.96;99.99
13496;DHT22;6820;49.374;8.452;2024-02-14T06:15:17;7.99;99.99
13496;DHT22;6820;49.374;8.452;2024-02-14T06:19:19;8.00;99.99
13496;DHT22;6820;49.374;8.452;2024-02-14T06:23:21;8.03;99.99
13496;DHT22;6820;49.374;8.452;2024-02-14T06:27:22;8.04;99.99
13496;DHT22;6820;49.374;8.452;2024-02-14T06:31:24;8.07;99.99
13496;DHT22;6820;49.374;8.452;2024-02-14T06:35:26;8.09;99.99
13496;DHT22;6820;49.374;8.452;2024-02-14T06:39:28;8.09;99.99
13496;DHT22;6820;49.374;8.452;2024-02-14T06:43:30;8.13;99.99
13496;DHT22;6820;49.374;8.452;2024-02-14T06:47:32;8.18;99.99
13496;DHT22;6820;49.374;8.452;2024-02-14T06:51:33;8.20;99.99
13496;DHT22;6820;49.374;8.452;2024-02-14T06:55:35;8.21;99.99
13496;DHT22;6820;49.374;8.452;2024-02-14T06:59:37;8.22;99.99
13496;DHT22;6820;49.374;8.452;2024-02-14T07:03:39;8.24;99.99
13496;DHT22;6820;49.374;8.452;2024-02-14T07:07:42;8.27;99.99
13496;DHT22;6820;49.374;8.452;2024-02-14T07:11:43;8.31;99.99
13496;DHT22;6820;49.374;8.452;2024-02-14T07:15:47;8.36;99.99
13496;DHT22;6820;49.374;8.452;2024-02-14T07:19:48;8.42;99.99
13496;DHT22;6820;49.374;8.452;2024-02-14T07:23:51;8.46;99.99
13496;DHT22;6820;49.374;8.452;2024-02-14T07:27:55;8.55;99.99
13496;DHT22;6820;49.374;8.452;2024-02-14T07:31:56;8.64;99.99
13496;DHT22;6820;49.374;8.452;2024-02-14T07:36:00;8.76;99.99
13496;DHT22;6820;49.374;8.452;2024-02-14T07:40:02;8.86;99.99
13496;DHT22;6820;49.374;8.452;2024-02-14T07:44:04;8.89;99.99
13496;DHT22;6820;49.374;8.452;2024-02-14T07:48:06;8.93;99.99
13496;DHT22;6820;49.374;8.452;2024-02-14T07:52:09;8.94;99.99
13496;DHT22;6820;49.374;8.452;2024-02-14T07:56:11;8.97;99.99
13496;DHT22;6820;49.374;8.452;2024-02-14T08:00:13;9.00;99.99
13496;DHT22;6820;49.374;8.452;2024-02-14T08:04:20;9.00;99.99
13496;DHT22;6820;49.374;8.452;2024-02-14T08:08:22;9.06;99.99
13496;DHT22;6820;49.374;8.452;2024-02-14T08:12:26;9.13;99.99
13496;DHT22;6820;49.374;8.452;2024-02-14T08:16:28;9.16;99.99
13496;DHT22;6820;49.374;8.452;2024-02-14T08:20:29;9.22;99.99
13496;DHT22;6820;49.374;8.452;2024-02-14T08:24:31;9.27;99.99
13496;DHT22;6820;49.374;8.452;2024-02-14T08:28:33;9.38;99.99
13496;DHT22;6820;49.374;8.452;2024-02-14T08:32:35;9.52;99.99
13496;DHT22;6820;49.374;8.452;2024-02-14T08:36:37;9.62;99.99
13496;DHT22;6820;49.374;8.452;2024-02-14T08:40:42;9.68;99.99
13496;DHT22;6820;49.374;8.452;2024-02-14T08:44:44;9.74;99.99
13496;DHT22;6820;49.374;8.452;2024-02-14T08:48:46;9.83;99.99
13496;DHT22;6820;49.374;8.452;2024-02-14T08:52:50;9.88;99.99
13496;DHT22;6820;49.374;8.452;2024-02-14T08:56:51;9.92;99.99
13496;DHT22;6820;49.374;8.452;2024-02-14T09:00:57;9.96;99.99
13496;DHT22;6820;49.374;8.452;2024-02-14T09:05:13;9.99;99.99
13496;DHT22;6820;49.374;8.452;2024-02-14T09:09:15;10.04;99.99
13496;DHT22;6820;49.374;8.452;2024-02-14T09:13:17;10.07;99.99
13496;DHT22;6820;49.374;8.452;2024-02-14T09:17:19;10.17;99.99
13496;DHT22;6820;49.374;8.452;2024-02-14T09:21:21;10.31;99.99
13496;DHT22;6820;49.374;8.452;2024-02-14T09:25:23;10.38;99.99
13496;DHT22;6820;49.374;8.452;2024-02-14T09:29:26;10.51;99.99
13496;DHT22;6820;49.374;8.452;2024-02-14T09:33:28;10.63;99.99
13496;DHT22;6820;49.374;8.452;2024-02-14T09:37:30;10.68;99.99
13496;DHT22;6820;49.374;8.452;2024-02-14T09:41:31;10.75;99.99
13496;DHT22;6820;49.374;8.452;2024-02-14T09:45:38;10.81;99.99
13496;DHT22;6820;49.374;8.452;2024-02-14T09:49:42;10.83;99.99
13496;DHT22;6820;49.374;8.452;2024-02-14T09:53:45;10.80;99.99
13496;DHT22;6820;49.374;8.452;2024-02-14T09:57:48;10.76;99.99
13496;DHT22;6820;49.374;8.452;2024-02-14T10:01:50;10.72;99.99
13496;DHT22;6820;49.374;8.452;2024-02-14T10:05:53;10.70;99.99
13496;DHT22;6820;49.374;8.452;2024-02-14T10:10:05;10.66;99.99
13496;DHT22;6820;49.374;8.452;2024-02-14T10:14:07;10.68;99.99
13496;DHT22;6820;49.374;8.452;2024-02-14T10:18:10;10.75;99.99
13496;DHT22;6820;49.374;8.452;2024-02-14T10:22:14;10.86;99.99
13496;DHT22;6820;49.374;8.452;2024-02-14T10:26:16;11.03;99.99
13496;DHT22;6820;49.374;8.452;2024-02-14T10:30:18;11.13;99.99
13496;DHT22;6820;49.374;8.452;2024-02-14T10:34:20;11.20;99.99
13496;DHT22;6820;49.374;8.452;2024-02-14T10:38:26;11.21;99.99
13496;DHT22;6820;49.374;8.452;2024-02-14T10:42:32;11.30;99.99
13496;DHT22;6820;49.374;8.452;2024-02-14T10:46:35;11.35;99.99
13496;DHT22;6820;49.374;8.452;2024-02-14T10:50:41;11.42;99.99
13496;DHT22;6820;49.374;8.452;2024-02-14T10:54:47;11.36;99.99
13496;DHT22;6820;49.374;8.452;2024-02-14T10:58:58;11.36;99.99
13496;DHT22;6820;49.374;8.452;2024-02-14T11:03:00;11.33;99.99
13496;DHT22;6820;49.374;8.452;2024-02-14T11:07:03;11.36;99.99
13496;DHT22;6820;49.374;8.452;2024-02-14T11:11:11;11.35;99.99
13496;DHT22;6820;49.374;8.452;2024-02-14T11:19:17;11.28;99.99
13496;DHT22;6820;49.374;8.452;2024-02-14T11:23:22;11.30;99.99
13496;DHT22;6820;49.374;8.452;2024-02-14T11:27:24;11.36;99.99
13496;DHT22;6820;49.374;8.452;2024-02-14T11:31:35;11.41;99.99
13496;DHT22;6820;49.374;8.452;2024-02-14T11:35:40;11.39;99.99
13496;DHT22;6820;49.374;8.452;2024-02-14T11:39:42;11.41;99.99
13496;DHT22;6820;49.374;8.452;2024-02-14T11:43:50;11.44;99.99
13496;DHT22;6820;49.374;8.452;2024-02-14T11:47:52;11.54;99.99
13496;DHT22;6820;49.374;8.452;2024-02-14T11:51:54;11.69;99.99
13496;DHT22;6820;49.374;8.452;2024-02-14T11:55:56;11.78;99.99
13496;DHT22;6820;49.374;8.452;2024-02-14T11:59:58;11.93;99.99
13496;DHT22;6820;49.374;8.452;2024-02-14T12:04:00;12.11;99.99
13496;DHT22;6820;49.374;8.452;2024-02-14T12:08:04;12.22;99.99
13496;DHT22;6820;49.374;8.452;2024-02-14T12:12:07;12.31;99.99
13496;DHT22;6820;49.374;8.452;2024-02-14T12:16:10;12.38;99.99
13496;DHT22;6820;49.374;8.452;2024-02-14T12:20:12;12.52;99.99
13496;DHT22;6820;49.374;8.452;2024-02-14T12:24:15;12.62;99.99
13496;DHT22;6820;49.374;8.452;2024-02-14T12:28:17;12.66;99.99
13496;DHT22;6820;49.374;8.452;2024-02-14T12:32:19;12.71;99.99
13496;DHT22;6820;49.374;8.452;2024-02-14T12:36:21;12.79;99.99
13496;DHT22;6820;49.374;8.452;2024-02-14T12:40:23;12.84;99.99
13496;DHT22;6820;49.374;8.452;2024-02-14T12:44:25;12.89;99.99
13496;DHT22;6820;49.374;8.452;2024-02-14T12:48:27;12.96;99.99
13496;DHT22;6820;49.374;8.452;2024-02-14T12:52:29;13.06;99.99
13496;DHT22;6820;49.374;8.452;2024-02-14T12:56:31;13.09;99.99
13496;DHT22;6820;49.374;8.452;2024-02-14T13:00:32;13.07;99.99
13496;DHT22;6820;49.374;8.452;2024-02-14T13:04:35;12.98;99.99
13496;DHT22;6820;49.374;8.452;2024-02-14T13:08:37;13.01;99.99
13496;DHT22;6820;49.374;8.452;2024-02-14T13:12:40;13.04;99.99
13496;DHT22;6820;49.374;8.452;2024-02-14T13:16:41;12.98;99.99
13496;DHT22;6820;49.374;8.452;2024-02-14T13:20:43;12.94;99.99
13496;DHT22;6820;49.374;8.452;2024-02-14T13:24:46;12.89;99.99
13496;DHT22;6820;49.374;8.452;2024-02-14T13:28:48;12.92;99.99
13496;DHT22;6820;49.374;8.452;2024-02-14T13:32:49;12.94;99.99
13496;DHT22;6820;49.374;8.452;2024-02-14T13:36:54;12.99;99.99
13496;DHT22;6820;49.374;8.452;2024-02-14T13:40:56;12.99;99.99
13496;DHT22;6820;49.374;8.452;2024-02-14T13:44:58;13.03;99.99
13496;DHT22;6820;49.374;8.452;2024-02-14T13:49:00;13.01;99.99
13496;DHT22;6820;49.374;8.452;2024-02-14T13:53:02;12.94;99.99
13496;DHT22;6820;49.374;8.452;2024-02-14T13:57:04;12.92;99.99
13496;DHT22;6820;49.374;8.452;2024-02-14T14:01:06;12.88;99.99
13496;DHT22;6820;49.374;8.452;2024-02-14T14:05:09;12.89;99.99
13496;DHT22;6820;49.374;8.452;2024-02-14T14:09:11;12.92;99.99
13496;DHT22;6820;49.374;8.452;2024-02-14T14:13:13;12.95;99.99
13496;DHT22;6820;49.374;8.452;2024-02-14T14:17:15;12.96;99.99
13496;DHT22;6820;49.374;8.452;2024-02-14T14:21:17;12.96;99.99
13496;DHT22;6820;49.374;8.452;2024-02-14T14:25:19;12.96;99.99
13496;DHT22;6820;49.374;8.452;2024-02-14T14:29:20;12.94;99.99
13496;DHT22;6820;49.374;8.452;2024-02-14T14:33:22;12.91;99.99
13496;DHT22;6820;49.374;8.452;2024-02-14T14:37:24;12.84;99.99
13496;DHT22;6820;49.374;8.452;2024-02-14T14:41:26;12.81;99.99
13496;DHT22;6820;49.374;8.452;2024-02-14T14:45:29;12.77;99.99
13496;DHT22;6820;49.374;8.452;2024-02-14T14:49:32;12.74;99.99
13496;DHT22;6820;49.374;8.452;2024-02-14T14:53:34;12.67;99.99
13496;DHT22;6820;49.374;8.452;2024-02-14T14:57:37;12.62;99.99
13496;DHT22;6820;49.374;8.452;2024-02-14T15:01:42;12.59;99.99
13496;DHT22;6820;49.374;8.452;2024-02-14T15:05:43;12.56;99.99
13496;DHT22;6820;49.374;8.452;2024-02-14T15:09:45;12.54;99.99
13496;DHT22;6820;49.374;8.452;2024-02-14T15:13:47;12.49;99.99
13496;DHT22;6820;49.374;8.452;2024-02-14T15:17:49;12.46;99.99
13496;DHT22;6820;49.374;8.452;2024-02-14T15:21:51;12.43;99.99
13496;DHT22;6820;49.374;8.452;2024-02-14T15:25:52;12.37;99.99
13496;DHT22;6820;49.374;8.452;2024-02-14T15:30:03;12.38;99.99
13496;DHT22;6820;49.374;8.452;2024-02-14T15:34:24;12.34;99.99
13496;DHT22;6820;49.374;8.452;2024-02-14T15:38:26;12.34;99.99
13496;DHT22;6820;49.374;8.452;2024-02-14T15:42:27;12.31;99.99
13496;DHT22;6820;49.374;8.452;2024-02-14T15:46:29;12.31;99.99
13496;DHT22;6820;49.374;8.452;2024-02-14T15:50:31;12.30;99.99
13496;DHT22;6820;49.374;8.452;2024-02-14T15:54:33;12.29;99.99
13496;DHT22;6820;49.374;8.452;2024-02-14T15:58:35;12.26;99.99
13496;DHT22;6820;49.374;8.452;2024-02-14T16:02:37;12.26;99.99
13496;DHT22;6820;49.374;8.452;2024-02-14T16:06:39;12.25;99.99
13496;DHT22;6820;49.374;8.452;2024-02-14T16:10:41;12.19;99.99
13496;DHT22;6820;49.374;8.452;2024-02-14T16:14:45;12.16;99.99
13496;DHT22;6820;49.374;8.452;2024-02-14T16:18:46;12.13;99.99
13496;DHT22;6820;49.374;8.452;2024-02-14T16:22:48;12.12;99.99
13496;DHT22;6820;49.374;8.452;2024-02-14T16:26:51;12.11;99.99
13496;DHT22;6820;49.374;8.452;2024-02-14T16:30:52;12.05;99.99
13496;DHT22;6820;49.374;8.452;2024-02-14T16:34:54;12.00;99.99
13496;DHT22;6820;49.374;8.452;2024-02-14T16:38:56;11.97;99.99
13496;DHT22;6820;49.374;8.452;2024-02-14T16:42:59;11.96;99.99
13496;DHT22;6820;49.374;8.452;2024-02-14T16:47:00;11.96;99.99
13496;DHT22;6820;49.374;8.452;2024-02-14T16:51:03;11.93;99.99
13496;DHT22;6820;49.374;8.452;2024-02-14T16:55:05;11.96;99.99
13496;DHT22;6820;49.374;8.452;2024-02-14T16:59:09;11.96;99.99
13496;DHT22;6820;49.374;8.452;2024-02-14T17:03:11;11.96;99.99
13496;DHT22;6820;49.374;8.452;2024-02-14T17:07:17;11.96;99.99
13496;DHT22;6820;49.374;8.452;2024-02-14T17:11:22;11.94;99.99
13496;DHT22;6820;49.374;8.452;2024-02-14T17:15:31;11.98;99.99
13496;DHT22;6820;49.374;8.452;2024-02-14T17:19:33;11.97;99.99
13496;DHT22;6820;49.374;8.452;2024-02-14T17:23:39;11.93;99.99
13496;DHT22;6820;49.374;8.452;2024-02-14T17:27:41;11.94;99.99
13496;DHT22;6820;49.374;8.452;2024-02-14T17:31:43;11.93;99.99
13496;DHT22;6820;49.374;8.452;2024-02-14T17:35:51;11.90;99.99
13496;DHT22;6820;49.374;8.452;2024-02-14T17:39:53;11.90;99.99
13496;DHT22;6820;49.374;8.452;2024-02-14T17:43:55;11.90;99.99
13496;DHT22;6820;49.374;8.452;2024-02-14T17:47:56;11.90;99.99
13496;DHT22;6820;49.374;8.452;2024-02-14T17:51:58;11.93;99.99
13496;DHT22;6820;49.374;8.452;2024-02-14T17:56:00;11.98;99.99
13496;DHT22;6820;49.374;8.452;2024-02-14T18:00:02;12.04;99.99
13496;DHT22;6820;49.374;8.452;2024-02-14T18:04:15;12.05;99.99
13496;DHT22;6820;49.374;8.452;2024-02-14T18:08:17;12.05;99.99
13496;DHT22;6820;49.374;8.452;2024-02-14T18:12:18;12.05;99.99
13496;DHT22;6820;49.374;8.452;2024-02-14T18:16:22;12.05;99.99
13496;DHT22;6820;49.374;8.452;2024-02-14T18:20:23;12.07;99.99
13496;DHT22;6820;49.374;8.452;2024-02-14T18:24:25;12.07;99.99
13496;DHT22;6820;49.374;8.452;2024-02-14T18:28:27;12.11;99.99
13496;DHT22;6820;49.374;8.452;2024-02-14T18:32:28;12.13;99.99
13496;DHT22;6820;49.374;8.452;2024-02-14T18:36:30;12.15;99.99
13496;DHT22;6820;49.374;8.452;2024-02-14T18:40:32;12.13;99.99
13496;DHT22;6820;49.374;8.452;2024-02-14T18:44:34;12.08;99.99
13496;DHT22;6820;49.374;8.452;2024-02-14T18:48:36;12.07;99.99
13496;DHT22;6820;49.374;8.452;2024-02-14T18:52:41;12.08;99.99
13496;DHT22;6820;49.374;8.452;2024-02-14T18:56:42;12.07;99.99
13496;DHT22;6820;49.374;8.452;2024-02-14T19:00:44;12.11;99.99
13496;DHT22;6820;49.374;8.452;2024-02-14T19:04:46;12.08;99.99
13496;DHT22;6820;49.374;8.452;2024-02-14T19:08:48;12.08;99.99
13496;DHT22;6820;49.374;8.452;2024-02-14T19:12:49;12.08;99.99
13496;DHT22;6820;49.374;8.452;2024-02-14T19:16:51;12.08;99.99
13496;DHT22;6820;49.374;8.452;2024-02-14T19:20:53;12.11;99.99
13496;DHT22;6820;49.374;8.452;2024-02-14T19:24:54;12.08;99.99
13496;DHT22;6820;49.374;8.452;2024-02-14T19:28:56;12.12;99.99
13496;DHT22;6820;49.374;8.452;2024-02-14T19:32:58;12.12;99.99
13496;DHT22;6820;49.374;8.452;2024-02-14T19:37:00;12.12;99.99
13496;DHT22;6820;49.374;8.452;2024-02-14T19:41:01;12.12;99.99
13496;DHT22;6820;49.374;8.452;2024-02-14T19:45:04;12.08;99.99
13496;DHT22;6820;49.374;8.452;2024-02-14T19:49:06;12.08;99.99
13496;DHT22;6820;49.374;8.452;2024-02-14T19:53:11;12.05;99.99
13496;DHT22;6820;49.374;8.452;2024-02-14T19:57:12;12.04;99.99
13496;DHT22;6820;49.374;8.452;2024-02-14T20:01:14;12.03;99.99
13496;DHT22;6820;49.374;8.452;2024-02-14T20:05:16;12.03;99.99
13496;DHT22;6820;49.374;8.452;2024-02-14T20:09:20;12.03;99.99
13496;DHT22;6820;49.374;8.452;2024-02-14T20:13:23;12.01;99.99
13496;DHT22;6820;49.374;8.452;2024-02-14T20:17:24;11.98;99.99
13496;DHT22;6820;49.374;8.452;2024-02-14T20:21:26;11.97;99.99
13496;DHT22;6820;49.374;8.452;2024-02-14T20:25:28;11.97;99.99
13496;DHT22;6820;49.374;8.452;2024-02-14T20:29:29;11.96;99.99
13496;DHT22;6820;49.374;8.452;2024-02-14T20:33:31;11.94;99.99
13496;DHT22;6820;49.374;8.452;2024-02-14T20:37:33;11.90;99.99
13496;DHT22;6820;49.374;8.452;2024-02-14T20:41:35;11.87;99.99
13496;DHT22;6820;49.374;8.452;2024-02-14T20:45:37;11.87;99.99
13496;DHT22;6820;49.374;8.452;2024-02-14T20:49:38;11.87;99.99
13496;DHT22;6820;49.374;8.452;2024-02-14T20:53:40;11.84;99.99
13496;DHT22;6820;49.374;8.452;2024-02-14T20:57:42;11.84;99.99
13496;DHT22;6820;49.374;8.452;2024-02-14T21:01:44;11.85;99.99
13496;DHT22;6820;49.374;8.452;2024-02-14T21:05:45;11.82;99.99
13496;DHT22;6820;49.374;8.452;2024-02-14T21:09:48;11.82;99.99
13496;DHT22;6820;49.374;8.452;2024-02-14T21:13:50;11.82;99.99
13496;DHT22;6820;49.374;8.452;2024-02-14T21:17:52;11.81;99.99
13496;DHT22;6820;49.374;8.452;2024-02-14T21:21:54;11.81;99.99
13496;DHT22;6820;49.374;8.452;2024-02-14T21:25:56;11.79;99.99
13496;DHT22;6820;49.374;8.452;2024-02-14T21:29:57;11.79;99.99
13496;DHT22;6820;49.374;8.452;2024-02-14T21:33:59;11.79;99.99
13496;DHT22;6820;49.374;8.452;2024-02-14T21:38:02;11.79;99.99
13496;DHT22;6820;49.374;8.452;2024-02-14T21:42:05;11.79;99.99
13496;DHT22;6820;49.374;8.452;2024-02-14T21:46:09;11.79;99.99
13496;DHT22;6820;49.374;8.452;2024-02-14T21:50:11;11.81;99.99
13496;DHT22;6820;49.374;8.452;2024-02-14T21:54:13;11.82;99.99
13496;DHT22;6820;49.374;8.452;2024-02-14T21:58:16;11.81;99.99
13496;DHT22;6820;49.374;8.452;2024-02-14T22:02:17;11.81;99.99
13496;DHT22;6820;49.374;8.452;2024-02-14T22:06:19;11.79;99.99
13496;DHT22;6820;49.374;8.452;2024-02-14T22:10:21;11.78;99.99
13496;DHT22;6820;49.374;8.452;2024-02-14T22:14:23;11.75;99.99
13496;DHT22;6820;49.374;8.452;2024-02-14T22:18:25;11.74;99.99
13496;DHT22;6820;49.374;8.452;2024-02-14T22:22:26;11.70;99.99
13496;DHT22;6820;49.374;8.452;2024-02-14T22:26:28;11.74;99.99
13496;DHT22;6820;49.374;8.452;2024-02-14T22:30:30;11.67;99.99
13496;DHT22;6820;49.374;8.452;2024-02-14T22:34:31;11.67;99.99
13496;DHT22;6820;49.374;8.452;2024-02-14T22:38:33;11.64;99.99
13496;DHT22;6820;49.374;8.452;2024-02-14T22:42:35;11.63;99.99
13496;DHT22;6820;49.374;8.452;2024-02-14T22:46:37;11.62;99.99
13496;DHT22;6820;49.374;8.452;2024-02-14T22:50:40;11.60;99.99
13496;DHT22;6820;49.374;8.452;2024-02-14T22:54:42;11.62;99.99
13496;DHT22;6820;49.374;8.452;2024-02-14T22:58:43;11.62;99.99
13496;DHT22;6820;49.374;8.452;2024-02-14T23:02:45;11.63;99.99
13496;DHT22;6820;49.374;8.452;2024-02-14T23:06:47;11.63;99.99
13496;DHT22;6820;49.374;8.452;2024-02-14T23:10:48;11.64;99.99
13496;DHT22;6820;49.374;8.452;2024-02-14T23:14:50;11.66;99.99
13496;DHT22;6820;49.374;8.452;2024-02-14T23:18:52;11.66;99.99
13496;DHT22;6820;49.374;8.452;2024-02-14T23:22:54;11.67;99.99
13496;DHT22;6820;49.374;8.452;2024-02-14T23:26:56;11.69;99.99
13496;DHT22;6820;49.374;8.452;2024-02-14T23:30:57;11.70;99.99
13496;DHT22;6820;49.374;8.452;2024-02-14T23:34:59;11.70;99.99
13496;DHT22;6820;49.374;8.452;2024-02-14T23:39:00;11.69;99.99
13496;DHT22;6820;49.374;8.452;2024-02-14T23:43:02;11.69;99.99
13496;DHT22;6820;49.374;8.452;2024-02-14T23:47:05;11.69;99.99
13496;DHT22;6820;49.374;8.452;2024-02-14T23:51:08;11.70;99.99
13496;DHT22;6820;49.374;8.452;2024-02-14T23:55:09;11.70;99.99
13496;DHT22;6820;49.374;8.452;2024-02-14T23:59:11;11.69;99.99
